createdAt,value
2018-09-22T00:00:24.867Z,1.50
2018-09-22T00:02:53.140Z,1.70
2018-09-22T00:05:21.412Z,1.67
2018-09-22T00:07:49.719Z,1.90
2018-09-22T00:10:17.991Z,1.67
2018-09-22T00:12:46.265Z,1.60
2018-09-22T00:26:20.364Z,2.10
2018-09-22T00:28:48.650Z,1.60
2018-09-22T00:31:16.948Z,1.80
2018-09-22T00:33:45.233Z,1.63
2018-09-22T00:36:13.492Z,1.80
2018-09-22T00:38:41.743Z,1.90
2018-09-22T00:41:10.024Z,2.10
2018-09-22T00:43:38.285Z,2.00
2018-09-22T00:46:06.551Z,2.20
2018-09-22T00:48:34.941Z,1.60
2018-09-22T00:51:03.214Z,2.53
2018-09-22T00:53:31.480Z,1.30
2018-09-22T00:55:59.756Z,1.90
2018-09-22T00:58:28.042Z,1.70
2018-09-22T01:00:56.335Z,1.83
2018-09-22T01:03:24.640Z,2.37
2018-09-22T01:05:52.908Z,1.90
2018-09-22T01:08:21.168Z,1.77
2018-09-22T01:10:49.464Z,2.50
2018-09-22T01:13:17.732Z,2.10
2018-09-22T01:15:46.070Z,2.03
2018-09-22T01:18:14.335Z,1.67
2018-09-22T01:20:42.616Z,1.90
2018-09-22T01:28:44.200Z,1.97
2018-09-22T01:31:12.463Z,1.90
2018-09-22T01:33:40.732Z,2.23
2018-09-22T01:36:08.988Z,2.60
2018-09-22T01:38:37.365Z,1.90
2018-09-22T01:41:05.649Z,2.10
2018-09-22T01:43:33.954Z,1.80
2018-09-22T01:46:02.225Z,1.80
2018-09-22T01:48:30.484Z,2.00
2018-09-22T01:50:58.824Z,1.90
2018-09-22T01:53:27.095Z,1.50
2018-09-22T01:55:55.378Z,1.93
2018-09-22T02:01:09.962Z,1.97
2018-09-22T02:03:38.228Z,2.40
2018-09-22T02:06:06.762Z,1.93
2018-09-22T02:14:07.949Z,2.17
2018-09-22T02:19:23.385Z,1.50
2018-09-22T02:21:51.656Z,1.70
2018-09-22T02:24:19.950Z,1.63
2018-09-22T02:26:48.231Z,1.47
2018-09-22T02:29:16.480Z,1.97
2018-09-22T02:31:44.782Z,1.57
2018-09-22T02:34:13.080Z,2.30
2018-09-22T02:36:41.338Z,1.97
2018-09-22T02:41:56.064Z,2.27
2018-09-22T02:44:24.355Z,1.70
2018-09-22T02:46:52.616Z,1.77
2018-09-22T02:49:20.900Z,1.30
2018-09-22T02:51:49.173Z,1.63
2018-09-22T02:54:17.449Z,1.43
2018-09-22T02:56:45.742Z,2.23
2018-09-22T02:59:14.016Z,1.57
2018-09-22T03:01:42.316Z,1.67
2018-09-22T03:04:10.590Z,1.47
2018-09-22T03:06:38.919Z,1.37
2018-09-22T03:09:08.295Z,1.90
2018-09-22T03:11:52.085Z,1.60
2018-09-22T03:14:20.440Z,1.77
2018-09-22T03:16:48.723Z,1.50
2018-09-22T03:19:17.021Z,1.83
2018-09-22T03:21:45.304Z,1.80
2018-09-22T03:24:13.570Z,1.70
2018-09-22T03:26:41.851Z,1.00
2018-09-22T03:29:10.145Z,1.37
2018-09-22T03:31:38.408Z,1.60
2018-09-22T03:34:06.720Z,1.67
2018-09-22T03:36:35.030Z,1.60
2018-09-22T03:41:50.296Z,1.40
2018-09-22T03:44:18.566Z,1.77
2018-09-22T03:46:46.822Z,1.50
2018-09-22T03:49:15.123Z,2.20
2018-09-22T03:51:43.388Z,1.27
2018-09-22T03:54:11.674Z,1.67
2018-09-22T03:56:39.951Z,1.63
2018-09-22T03:59:08.234Z,1.53
2018-09-22T04:01:36.520Z,1.77
2018-09-22T04:04:04.785Z,1.60
2018-09-22T04:06:47.169Z,1.90
2018-09-22T04:09:15.481Z,1.83
2018-09-22T04:11:43.780Z,1.80
2018-09-22T04:14:12.052Z,1.80
2018-09-22T04:16:40.340Z,2.47
2018-09-22T04:22:00.447Z,2.17
2018-09-22T04:24:28.735Z,1.93
2018-09-22T04:26:57.016Z,2.20
2018-09-22T04:29:25.287Z,1.77
2018-09-22T04:31:53.571Z,1.60
2018-09-22T04:34:21.898Z,1.90
2018-09-22T04:36:50.165Z,2.00
2018-09-22T04:39:18.462Z,2.00
2018-09-22T04:41:47.366Z,2.00
2018-09-22T04:44:15.652Z,2.03
2018-09-22T04:46:43.991Z,2.30
2018-09-22T04:49:12.259Z,1.80
2018-09-22T04:51:45.968Z,1.67
2018-09-22T04:54:14.242Z,1.90
2018-09-22T04:56:42.541Z,2.10
2018-09-22T04:59:10.814Z,2.07
2018-09-22T05:01:39.075Z,2.00
2018-09-22T05:04:07.379Z,2.17
2018-09-22T05:06:35.674Z,2.13
2018-09-22T05:09:05.484Z,2.10
2018-09-22T05:11:33.731Z,1.83
2018-09-22T05:14:02.052Z,2.10
2018-09-22T05:16:30.339Z,1.73
2018-09-22T05:18:58.620Z,2.07
2018-09-22T05:21:26.936Z,2.20
2018-09-22T05:23:55.236Z,1.73
2018-09-22T05:26:23.523Z,2.50
2018-09-22T05:28:51.843Z,1.70
2018-09-22T05:31:20.101Z,2.03
2018-09-22T05:33:48.395Z,2.37
2018-09-22T05:36:16.643Z,2.30
2018-09-22T05:38:44.984Z,2.03
2018-09-22T05:41:13.264Z,1.57
2018-09-22T05:43:41.527Z,1.93
2018-09-22T05:46:09.816Z,2.40
2018-09-22T05:48:38.163Z,2.50
2018-09-22T05:51:06.644Z,2.00
2018-09-22T05:53:34.934Z,2.20
2018-09-22T05:56:03.217Z,2.77
2018-09-22T05:58:31.624Z,2.10
2018-09-22T06:00:59.938Z,2.40
2018-09-22T06:03:28.327Z,2.27
2018-09-22T06:05:56.553Z,2.40
2018-09-22T06:08:24.835Z,2.47
2018-09-22T06:10:53.133Z,2.47
2018-09-22T06:13:21.487Z,1.90
2018-09-22T06:15:49.940Z,2.30
2018-09-22T06:18:18.188Z,2.50
2018-09-22T06:20:46.480Z,2.70
2018-09-22T06:23:14.838Z,1.90
2018-09-22T06:25:43.051Z,2.20
2018-09-22T06:28:21.587Z,2.37
2018-09-22T06:30:49.872Z,2.60
2018-09-22T06:33:18.127Z,1.87
2018-09-22T06:35:46.400Z,2.20
2018-09-22T06:38:14.692Z,1.90
2018-09-22T06:40:42.973Z,2.17
2018-09-22T06:43:12.071Z,2.00
2018-09-22T06:45:40.351Z,2.57
2018-09-22T06:48:08.756Z,2.40
2018-09-22T06:50:37.021Z,2.00
2018-09-22T06:53:05.296Z,1.83
2018-09-22T06:55:33.604Z,2.73
2018-09-22T06:58:02.351Z,2.27
2018-09-22T07:00:30.843Z,2.50
2018-09-22T07:02:59.115Z,2.57
2018-09-22T07:05:27.388Z,2.37
2018-09-22T07:07:55.699Z,2.17
2018-09-22T07:10:23.947Z,2.40
2018-09-22T07:12:52.192Z,1.60
2018-09-22T07:15:20.478Z,2.80
2018-09-22T07:17:48.907Z,2.10
2018-09-22T07:20:17.192Z,2.07
2018-09-22T07:22:50.891Z,2.20
2018-09-22T07:25:19.219Z,2.00
2018-09-22T07:27:47.491Z,1.77
2018-09-22T07:30:15.835Z,1.40
2018-09-22T07:32:45.168Z,2.10
2018-09-22T07:35:13.449Z,1.67
2018-09-22T07:37:41.793Z,1.77
2018-09-22T07:40:10.057Z,1.40
2018-09-22T07:42:38.436Z,1.60
2018-09-22T07:45:06.726Z,1.40
2018-09-22T07:47:34.995Z,1.60
2018-09-22T07:50:03.310Z,1.30
2018-09-22T07:52:31.615Z,2.20
2018-09-22T07:55:00.216Z,1.70
2018-09-22T07:57:28.717Z,1.80
2018-09-22T07:59:57.104Z,2.00
2018-09-22T08:02:25.374Z,1.67
2018-09-22T08:04:53.651Z,1.83
2018-09-22T08:07:21.961Z,1.53
2018-09-22T08:09:50.316Z,1.50
2018-09-22T08:12:18.583Z,1.40
2018-09-22T08:14:46.876Z,1.83
2018-09-22T08:17:15.165Z,1.97
2018-09-22T08:19:43.484Z,1.80
2018-09-22T08:22:11.768Z,1.40
2018-09-22T08:24:41.380Z,1.40
2018-09-22T08:27:09.645Z,1.53
2018-09-22T08:29:37.931Z,2.43
2018-09-22T08:32:06.264Z,2.07
2018-09-22T08:34:34.567Z,1.27
2018-09-22T08:37:02.966Z,3.13
2018-09-22T08:39:31.177Z,1.50
2018-09-22T08:41:59.472Z,1.60
2018-09-22T08:44:27.728Z,1.50
2018-09-22T08:46:56.019Z,1.90
2018-09-22T08:49:24.369Z,1.53
2018-09-22T08:51:52.676Z,1.23
2018-09-22T08:54:20.944Z,1.73
2018-09-22T08:56:49.228Z,1.40
2018-09-22T08:59:17.514Z,1.60
2018-09-22T09:01:45.777Z,1.67
2018-09-22T09:04:14.077Z,1.50
2018-09-22T09:06:42.367Z,1.60
2018-09-22T09:09:11.148Z,1.20
2018-09-22T09:11:39.464Z,1.50
2018-09-22T09:14:07.806Z,2.33
2018-09-22T09:16:36.090Z,1.87
2018-09-22T09:19:04.382Z,1.40
2018-09-22T09:21:32.680Z,1.50
2018-09-22T09:24:00.948Z,1.93
2018-09-22T09:26:29.324Z,1.60
2018-09-22T09:31:49.416Z,1.37
2018-09-22T09:34:17.673Z,1.43
2018-09-22T09:36:45.979Z,2.03
2018-09-22T09:39:14.224Z,1.30
2018-09-22T09:41:42.504Z,1.63
2018-09-22T09:44:10.816Z,1.20
2018-09-22T09:46:39.063Z,1.50
2018-09-22T09:49:07.365Z,1.70
2018-09-22T09:51:35.633Z,1.43
2018-09-22T09:54:03.963Z,1.20
2018-09-22T09:56:32.223Z,1.60
2018-09-22T09:59:00.493Z,1.60
2018-09-22T10:01:28.791Z,1.70
2018-09-22T10:03:57.059Z,1.60
2018-09-22T10:06:25.359Z,1.07
2018-09-22T10:08:53.642Z,1.40
2018-09-22T10:11:21.960Z,1.30
2018-09-22T10:13:50.247Z,1.70
2018-09-22T10:16:19.085Z,1.60
2018-09-22T10:18:47.385Z,1.40
2018-09-22T10:21:15.695Z,1.30
2018-09-22T10:23:44.016Z,1.57
2018-09-22T10:26:12.289Z,1.47
2018-09-22T10:28:40.592Z,1.83
2018-09-22T10:31:08.909Z,1.47
2018-09-22T10:33:37.179Z,1.30
2018-09-22T10:36:05.461Z,1.80
2018-09-22T10:38:33.735Z,1.30
2018-09-22T10:41:02.039Z,1.20
2018-09-22T10:43:30.309Z,1.50
2018-09-22T10:48:45.525Z,1.10
2018-09-22T10:51:13.805Z,1.37
2018-09-22T10:53:42.088Z,1.40
2018-09-22T10:56:10.366Z,1.30
2018-09-22T10:58:38.664Z,1.10
2018-09-22T11:01:07.013Z,1.40
2018-09-22T11:03:35.306Z,1.20
2018-09-22T11:06:03.577Z,1.30
2018-09-22T11:08:31.888Z,1.20
2018-09-22T11:11:00.162Z,1.47
2018-09-22T11:13:34.705Z,1.60
2018-09-22T11:16:02.978Z,1.90
2018-09-22T11:18:31.270Z,1.70
2018-09-22T11:20:59.560Z,1.67
2018-09-22T11:23:27.841Z,1.67
2018-09-22T11:25:56.160Z,1.40
2018-09-22T11:28:24.436Z,2.80
2018-09-22T11:30:52.737Z,1.57
2018-09-22T11:33:21.024Z,1.77
2018-09-22T11:35:49.304Z,1.83
2018-09-22T11:38:17.631Z,1.90
2018-09-22T11:40:45.921Z,1.40
2018-09-22T11:43:14.247Z,1.50
2018-09-22T11:45:42.563Z,1.10
2018-09-22T11:48:10.877Z,1.00
2018-09-22T11:50:39.156Z,2.43
2018-09-22T11:53:07.431Z,1.50
2018-09-22T11:55:35.757Z,1.70
2018-09-22T11:58:04.065Z,1.63
2018-09-22T12:00:32.377Z,1.40
2018-09-22T12:03:00.624Z,1.30
2018-09-22T12:05:28.918Z,1.40
2018-09-22T12:07:57.233Z,1.17
2018-09-22T12:10:25.797Z,1.70
2018-09-22T12:13:00.768Z,1.27
2018-09-22T12:15:29.017Z,1.30
2018-09-22T12:17:57.308Z,1.27
2018-09-22T12:20:25.580Z,1.17
2018-09-22T12:22:53.927Z,1.30
2018-09-22T12:25:22.212Z,1.53
2018-09-22T12:27:50.544Z,1.60
2018-09-22T12:30:18.849Z,1.50
2018-09-22T12:32:47.127Z,1.40
2018-09-22T12:35:15.422Z,1.50
2018-09-22T12:37:43.893Z,1.40
2018-09-22T12:40:12.217Z,1.20
2018-09-22T12:42:40.484Z,1.33
2018-09-22T12:45:08.758Z,1.40
2018-09-22T12:47:37.044Z,1.43
2018-09-22T12:50:05.339Z,1.57
2018-09-22T12:52:33.631Z,1.40
2018-09-22T12:55:01.903Z,1.17
2018-09-22T12:57:30.196Z,1.57
2018-09-22T12:59:58.484Z,1.20
2018-09-22T13:02:26.756Z,1.60
2018-09-22T13:04:55.067Z,1.20
2018-09-22T13:07:23.338Z,1.40
2018-09-22T13:09:51.647Z,1.53
2018-09-22T13:12:19.965Z,1.40
2018-09-22T13:14:48.243Z,1.33
2018-09-22T13:17:16.508Z,1.17
2018-09-22T13:19:44.760Z,1.80
2018-09-22T13:22:22.945Z,1.27
2018-09-22T13:24:51.246Z,1.20
2018-09-22T13:27:19.561Z,1.00
2018-09-22T13:29:47.823Z,1.40
2018-09-22T13:32:16.159Z,0.90
2018-09-22T13:34:44.497Z,1.10
2018-09-22T13:37:12.837Z,1.10
2018-09-22T13:39:42.148Z,1.30
2018-09-22T13:42:10.551Z,1.00
2018-09-22T13:44:38.841Z,1.07
2018-09-22T13:47:07.443Z,1.33
2018-09-22T13:49:35.748Z,1.27
2018-09-22T13:52:04.129Z,1.50
2018-09-22T13:54:34.386Z,1.10
2018-09-22T13:57:02.688Z,1.20
2018-09-22T13:59:30.976Z,1.77
2018-09-22T14:01:59.263Z,1.30
2018-09-22T14:04:27.544Z,1.10
2018-09-22T14:06:55.868Z,1.07
2018-09-22T14:09:24.207Z,1.13
2018-09-22T14:11:52.466Z,1.13
2018-09-22T14:14:20.828Z,1.37
2018-09-22T14:16:49.125Z,1.23
2018-09-22T14:19:18.209Z,1.27
2018-09-22T14:21:46.485Z,1.33
2018-09-22T14:24:14.843Z,1.20
2018-09-22T14:26:43.103Z,1.20
2018-09-22T14:29:11.388Z,1.27
2018-09-22T14:31:39.712Z,1.20
2018-09-22T14:34:07.998Z,2.07
2018-09-22T14:36:36.283Z,1.47
2018-09-22T14:39:05.251Z,1.20
2018-09-22T14:41:33.545Z,1.00
2018-09-22T14:44:01.806Z,1.17
2018-09-22T14:46:30.932Z,1.40
2018-09-22T14:48:59.240Z,1.77
2018-09-22T14:51:27.501Z,1.30
2018-09-22T14:53:55.792Z,1.30
2018-09-22T14:56:24.064Z,1.03
2018-09-22T14:58:52.369Z,1.20
2018-09-22T15:01:20.679Z,1.50
2018-09-22T15:03:48.943Z,1.37
2018-09-22T15:06:17.256Z,1.37
2018-09-22T15:08:45.527Z,1.30
2018-09-22T15:14:00.521Z,1.30
2018-09-22T15:16:28.860Z,1.13
2018-09-22T15:18:57.175Z,1.03
2018-09-22T15:21:25.475Z,1.37
2018-09-22T15:23:54.147Z,1.23
2018-09-22T15:26:22.392Z,1.70
2018-09-22T15:28:50.793Z,1.30
2018-09-22T15:31:19.068Z,1.10
2018-09-22T15:33:47.379Z,1.20
2018-09-22T15:36:15.656Z,1.50
2018-09-22T15:38:43.928Z,1.07
2018-09-22T15:41:12.236Z,1.70
2018-09-22T15:43:40.500Z,1.20
2018-09-22T15:46:08.993Z,1.40
2018-09-22T15:48:37.311Z,1.50
2018-09-22T15:51:05.615Z,1.70
2018-09-22T15:53:33.896Z,1.00
2018-09-22T15:56:02.174Z,1.30
2018-09-22T15:58:30.581Z,1.30
2018-09-22T16:00:58.993Z,1.70
2018-09-22T16:03:27.366Z,1.30
2018-09-22T16:05:55.595Z,1.37
2018-09-22T16:08:23.901Z,2.30
2018-09-22T16:10:52.176Z,1.30
2018-09-22T16:13:20.474Z,1.30
2018-09-22T16:15:49.085Z,1.83
2018-09-22T16:18:23.504Z,1.53
2018-09-22T16:20:52.477Z,1.30
2018-09-22T16:23:20.761Z,1.63
2018-09-22T16:25:49.065Z,1.63
2018-09-22T16:28:17.477Z,1.30
2018-09-22T16:30:46.203Z,1.47
2018-09-22T16:33:14.644Z,1.73
2018-09-22T16:35:49.660Z,1.23
2018-09-22T16:38:18.063Z,1.53
2018-09-22T16:40:46.395Z,1.10
2018-09-22T16:43:14.779Z,1.50
2018-09-22T16:45:43.055Z,1.20
2018-09-22T16:48:11.355Z,1.83
2018-09-22T16:50:43.037Z,1.30
2018-09-22T16:53:11.375Z,1.13
2018-09-22T16:55:39.625Z,3.90
2018-09-22T16:58:08.127Z,1.93
2018-09-22T17:00:38.424Z,1.57
2018-09-22T17:03:07.059Z,2.00
2018-09-22T17:05:35.319Z,1.57
2018-09-22T17:08:03.661Z,1.40
2018-09-22T17:10:32.114Z,1.70
2018-09-22T17:13:00.564Z,1.70
2018-09-22T17:15:29.179Z,1.90
2018-09-22T17:17:57.441Z,1.60
2018-09-22T17:20:30.077Z,1.37
2018-09-22T17:22:58.506Z,1.70
2018-09-22T17:25:26.832Z,1.17
2018-09-22T17:27:55.208Z,2.00
2018-09-22T17:30:23.693Z,1.60
2018-09-22T17:32:51.888Z,1.60
2018-09-22T17:35:20.157Z,1.53
2018-09-22T17:37:48.463Z,1.80
2018-09-22T17:40:16.772Z,1.97
2018-09-22T17:42:48.732Z,1.93
2018-09-22T17:45:17.045Z,1.90
2018-09-22T17:47:45.352Z,1.60
2018-09-22T17:50:13.635Z,1.60
2018-09-22T17:52:41.924Z,1.90
2018-09-22T17:55:10.203Z,2.13
2018-09-22T17:57:38.468Z,1.50
2018-09-22T18:00:06.806Z,2.00
2018-09-22T18:02:35.080Z,1.97
2018-09-22T18:05:03.403Z,1.50
2018-09-22T18:07:31.663Z,1.60
2018-09-22T18:09:59.956Z,1.87
2018-09-22T18:12:29.446Z,1.43
2018-09-22T18:14:57.725Z,1.60
2018-09-22T18:17:26.032Z,2.00
2018-09-22T18:19:54.308Z,1.30
2018-09-22T18:22:22.599Z,1.57
2018-09-22T18:24:50.888Z,2.20
2018-09-22T18:27:19.148Z,1.73
2018-09-22T18:29:53.231Z,1.67
2018-09-22T18:32:21.495Z,2.07
2018-09-22T18:34:49.783Z,2.00
2018-09-22T18:37:18.079Z,2.10
2018-09-22T18:39:46.397Z,1.67
2018-09-22T18:45:00.961Z,1.60
2018-09-22T18:47:41.592Z,1.70
2018-09-22T18:50:15.871Z,1.60
2018-09-22T18:52:44.176Z,1.80
2018-09-22T18:55:12.629Z,2.33
2018-09-22T18:57:40.919Z,1.67
2018-09-22T19:00:09.208Z,1.87
2018-09-22T19:02:37.497Z,1.60
2018-09-22T19:05:05.856Z,1.90
2018-09-22T19:07:34.181Z,1.70
2018-09-22T19:10:02.523Z,1.77
2018-09-22T19:12:30.876Z,2.00
2018-09-22T19:16:07.329Z,1.77
2018-09-22T19:18:47.142Z,1.93
2018-09-22T19:21:22.234Z,1.93
2018-09-22T19:23:54.707Z,2.30
2018-09-22T19:26:32.495Z,2.87
2018-09-22T19:29:07.404Z,2.20
2018-09-22T19:31:46.129Z,2.30
2018-09-22T19:34:17.520Z,2.30
2018-09-22T19:36:50.378Z,2.13
2018-09-22T19:39:32.740Z,1.90
2018-09-22T19:42:05.690Z,1.77
2018-09-22T19:44:42.981Z,2.47
2018-09-22T19:47:21.580Z,2.10
2018-09-22T19:49:59.836Z,4.20
2018-09-22T19:52:31.564Z,2.80
2018-09-22T19:54:59.928Z,1.90
2018-09-22T19:57:28.289Z,2.17
2018-09-22T19:59:56.559Z,2.20
2018-09-22T20:02:24.843Z,2.03
2018-09-22T20:04:53.119Z,1.87
2018-09-22T20:07:21.456Z,1.73
2018-09-22T20:09:49.719Z,1.90
2018-09-22T20:12:18.082Z,1.93
2018-09-22T20:14:46.355Z,2.07
2018-09-22T20:17:14.683Z,1.70
2018-09-22T20:19:42.936Z,1.93
2018-09-22T20:22:11.247Z,1.90
2018-09-22T20:24:39.553Z,2.20
2018-09-22T20:27:07.858Z,1.90
2018-09-22T20:29:36.232Z,1.93
2018-09-22T20:32:04.526Z,1.90
2018-09-22T20:34:32.837Z,1.83
2018-09-22T20:37:01.129Z,2.87
2018-09-22T20:39:29.421Z,3.03
2018-09-22T20:41:57.735Z,3.10
2018-09-22T20:44:26.042Z,2.83
2018-09-22T20:46:54.332Z,2.97
2018-09-22T20:49:22.626Z,2.90
2018-09-22T20:51:50.972Z,2.40
2018-09-22T20:54:19.255Z,2.60
2018-09-22T20:56:47.532Z,2.47
2018-09-22T20:59:15.846Z,2.30
2018-09-22T21:01:44.116Z,2.50
2018-09-22T21:04:12.420Z,2.53
2018-09-22T21:06:40.752Z,2.80
2018-09-22T21:09:09.968Z,2.80
2018-09-22T21:11:38.672Z,2.77
2018-09-22T21:14:07.178Z,2.53
2018-09-22T21:16:35.492Z,2.53
2018-09-22T21:19:03.868Z,2.87
2018-09-22T21:21:32.146Z,3.23
2018-09-22T21:24:00.464Z,3.33
2018-09-22T21:26:28.755Z,2.90
2018-09-22T21:28:57.044Z,2.83
2018-09-22T21:34:11.633Z,2.70
2018-09-22T21:36:39.968Z,3.90
2018-09-22T21:39:11.464Z,3.17
2018-09-22T21:41:39.761Z,3.10
2018-09-22T21:44:08.130Z,3.07
2018-09-22T21:46:36.417Z,3.00
2018-09-22T21:49:04.956Z,2.93
2018-09-22T21:51:33.257Z,2.80
2018-09-22T21:54:01.557Z,2.80
2018-09-22T21:56:29.862Z,4.10
2018-09-22T21:58:58.163Z,2.67
2018-09-22T22:01:31.765Z,3.73
2018-09-22T22:04:00.087Z,2.73
2018-09-22T22:06:28.461Z,3.00
2018-09-22T22:08:56.747Z,2.60
2018-09-22T22:11:25.116Z,2.80
2018-09-22T22:19:32.199Z,2.80
2018-09-22T22:22:00.470Z,2.50
2018-09-22T22:24:28.760Z,2.73
2018-09-22T22:26:57.048Z,2.23
2018-09-22T22:29:25.352Z,1.70
2018-09-22T22:31:53.623Z,2.30
2018-09-22T22:34:21.935Z,2.67
2018-09-22T22:36:50.224Z,2.00
2018-09-22T22:39:18.553Z,1.77
2018-09-22T22:41:46.871Z,2.20
2018-09-22T22:44:15.138Z,2.17
2018-09-22T22:46:43.485Z,2.50
2018-09-22T22:49:11.856Z,1.70
2018-09-22T22:51:40.168Z,1.90
2018-09-22T22:54:08.494Z,1.77
2018-09-22T22:56:36.801Z,1.47
2018-09-22T22:59:05.245Z,1.90
2018-09-22T23:01:33.540Z,1.50
2018-09-22T23:04:01.842Z,1.50
2018-09-22T23:06:30.126Z,1.50
2018-09-22T23:08:58.420Z,1.53
2018-09-22T23:11:26.703Z,1.60
2018-09-22T23:13:54.999Z,1.50
2018-09-22T23:16:23.281Z,1.50
2018-09-22T23:18:51.546Z,1.23
2018-09-22T23:24:06.767Z,1.47
2018-09-22T23:26:35.064Z,1.57
2018-09-22T23:29:03.402Z,1.40
2018-09-22T23:31:31.699Z,1.47
2018-09-22T23:33:59.971Z,1.10
2018-09-22T23:36:28.284Z,1.30
2018-09-22T23:38:56.584Z,1.40
2018-09-22T23:41:24.873Z,1.27
2018-09-22T23:43:53.187Z,1.20
2018-09-22T23:46:21.487Z,1.33
2018-09-22T23:48:49.822Z,1.43
2018-09-22T23:51:18.092Z,1.20
2018-09-22T23:53:46.415Z,1.57
2018-09-22T23:56:14.765Z,1.23
2018-09-22T23:58:43.104Z,1.10
